createdAt,value
2023-02-13T05:29:20.606Z,38.53
2023-02-13T05:34:23.934Z,40.03
2023-02-13T05:39:25.591Z,37.87
2023-02-13T05:44:27.276Z,42.60
2023-02-13T05:49:28.896Z,37.40
2023-02-13T05:54:30.524Z,37.37
2023-02-13T05:59:32.148Z,35.17
2023-02-13T06:04:33.830Z,34.97
2023-02-13T06:09:35.491Z,35.57
2023-02-13T06:14:37.090Z,36.47
2023-02-13T06:19:38.734Z,47.90
2023-02-13T06:24:40.392Z,36.37
2023-02-13T06:29:42.016Z,37.73
2023-02-13T06:34:43.655Z,36.40
2023-02-13T06:39:45.469Z,39.40
2023-02-13T06:44:47.064Z,37.87
2023-02-13T06:49:48.785Z,37.73
2023-02-13T06:54:50.510Z,35.60
2023-02-13T06:59:52.204Z,36.67
2023-02-13T07:04:53.887Z,34.97
2023-02-13T07:09:55.562Z,39.93
2023-02-13T07:14:57.262Z,37.00
2023-02-13T07:20:01.701Z,35.37
2023-02-13T07:25:04.040Z,35.73
2023-02-13T07:30:06.886Z,34.37
2023-02-13T07:35:08.718Z,34.57
2023-02-13T07:40:10.891Z,34.17
2023-02-13T07:45:12.509Z,33.87
2023-02-13T07:50:14.332Z,34.00
2023-02-13T07:55:16.231Z,36.33
2023-02-13T08:00:18.650Z,41.17
2023-02-13T08:05:20.308Z,36.33
2023-02-13T08:10:40.761Z,35.37
2023-02-13T08:15:44.707Z,33.87
2023-02-13T08:20:46.348Z,33.40
2023-02-13T08:25:49.947Z,32.97
2023-02-13T08:30:51.852Z,34.80
2023-02-13T08:35:53.576Z,33.77
2023-02-13T08:40:57.968Z,36.00
2023-02-13T08:46:01.095Z,37.93
2023-02-13T08:51:08.776Z,36.60
2023-02-13T08:56:11.711Z,34.93
2023-02-13T09:01:13.450Z,39.33
2023-02-13T09:06:15.217Z,35.87
2023-02-13T09:11:16.917Z,34.53
2023-02-13T09:16:18.637Z,35.60
2023-02-13T09:21:23.789Z,35.13
2023-02-13T09:26:25.564Z,35.53
2023-02-13T09:31:29.448Z,37.07
2023-02-13T09:36:31.538Z,34.17
2023-02-13T09:41:37.668Z,35.53
2023-02-13T09:46:40.826Z,36.10
2023-02-13T09:51:45.538Z,37.37
2023-02-13T09:57:07.348Z,36.90
2023-02-13T10:02:33.473Z,38.33
2023-02-13T10:07:53.784Z,37.90
2023-02-13T10:13:31.278Z,35.03
2023-02-13T10:19:19.353Z,39.93
2023-02-13T10:24:33.278Z,36.60
2023-02-13T10:30:05.612Z,37.87
2023-02-13T10:35:27.830Z,37.27
2023-02-13T10:40:38.864Z,39.93
2023-02-13T10:45:55.708Z,39.47
2023-02-13T10:51:00.252Z,41.20
2023-02-13T10:56:04.749Z,39.33
2023-02-13T11:01:46.373Z,41.53
2023-02-13T11:07:06.071Z,43.13
2023-02-13T11:12:26.646Z,43.33
2023-02-13T11:17:32.358Z,43.77
2023-02-13T11:22:38.121Z,48.23
2023-02-13T11:27:40.671Z,48.23
2023-02-13T11:32:42.393Z,48.63
2023-02-13T11:37:44.063Z,57.10
2023-02-13T11:42:51.223Z,62.27
2023-02-13T11:47:55.531Z,60.37
2023-02-13T11:53:20.827Z,61.87
2023-02-13T11:58:28.734Z,62.50
2023-02-13T12:03:32.349Z,69.03
2023-02-13T12:08:37.369Z,72.93
2023-02-13T12:13:39.668Z,70.70
2023-02-13T12:18:46.710Z,71.57
2023-02-13T12:24:03.434Z,68.70
2023-02-13T12:29:05.431Z,69.77
2023-02-13T12:34:35.176Z,67.00
2023-02-13T12:39:57.164Z,62.57
2023-02-13T12:45:03.344Z,67.43
2023-02-13T12:50:29.313Z,62.37
2023-02-13T12:55:48.669Z,64.07
2023-02-13T13:01:19.686Z,65.27
2023-02-13T13:06:30.454Z,62.93
2023-02-13T13:11:51.682Z,65.03
2023-02-13T13:17:18.244Z,60.90
2023-02-13T13:22:31.044Z,58.10
2023-02-13T13:27:50.163Z,59.27
2023-02-13T13:32:56.910Z,54.17
2023-02-13T13:38:15.761Z,60.37
2023-02-13T13:44:16.425Z,57.47
2023-02-13T13:49:36.391Z,58.57
2023-02-13T13:54:38.202Z,61.13
2023-02-13T13:59:39.999Z,49.80
2023-02-13T14:05:00.330Z,54.17
2023-02-13T14:10:02.076Z,54.23
2023-02-13T14:15:03.876Z,50.93
2023-02-13T14:20:30.784Z,50.87
2023-02-13T14:25:33.412Z,51.20
2023-02-13T14:30:38.173Z,48.57
2023-02-13T14:35:39.924Z,50.37
2023-02-13T14:40:48.044Z,46.53
2023-02-13T14:45:55.975Z,48.77
2023-02-13T14:51:00.131Z,47.87
2023-02-13T14:56:15.026Z,48.97
2023-02-13T15:01:29.098Z,45.70
2023-02-13T15:06:36.114Z,46.63
2023-02-13T15:11:44.036Z,49.13
2023-02-13T15:16:50.294Z,44.33
2023-02-13T15:22:00.392Z,49.53
2023-02-13T15:27:06.697Z,45.97
2023-02-13T15:32:19.594Z,43.73
2023-02-13T15:37:24.290Z,53.73
2023-02-13T15:42:25.940Z,46.90
2023-02-13T15:47:31.758Z,48.80
2023-02-13T15:52:37.955Z,46.47
2023-02-13T15:57:40.936Z,45.63
2023-02-13T16:02:47.619Z,47.43
2023-02-13T16:07:58.218Z,48.60
2023-02-13T16:13:03.493Z,46.80
2023-02-13T16:18:11.715Z,47.43
2023-02-13T16:23:20.911Z,44.80
2023-02-13T16:28:26.536Z,45.70
2023-02-13T16:33:37.929Z,43.97
2023-02-13T16:38:42.327Z,44.10
2023-02-13T16:43:49.332Z,45.40
2023-02-13T16:48:56.984Z,46.17
2023-02-13T16:54:02.096Z,42.33
2023-02-13T16:59:22.849Z,41.17
2023-02-13T17:04:25.371Z,47.60
2023-02-13T17:09:27.155Z,42.90
2023-02-13T17:14:28.894Z,43.73
2023-02-13T17:19:30.628Z,43.60
2023-02-13T17:24:32.502Z,41.77
2023-02-13T17:29:34.189Z,39.50
2023-02-13T17:34:35.871Z,41.73
2023-02-13T17:39:37.561Z,44.77
2023-02-13T17:44:39.319Z,41.23
2023-02-13T17:49:41.467Z,40.30
2023-02-13T17:54:44.864Z,42.43
2023-02-13T17:59:47.149Z,41.03
2023-02-13T18:04:49.489Z,41.53
2023-02-13T18:09:51.911Z,40.17
2023-02-13T18:14:54.948Z,42.07
2023-02-13T18:20:01.850Z,48.03
2023-02-13T18:25:04.188Z,45.53
2023-02-13T18:30:07.184Z,42.43
2023-02-13T18:35:09.545Z,42.63
2023-02-13T18:40:11.936Z,46.27
2023-02-13T18:45:13.633Z,38.53
2023-02-13T18:50:15.260Z,37.40
2023-02-13T18:55:17.079Z,38.93
2023-02-13T19:00:20.009Z,36.80
2023-02-13T19:05:22.755Z,43.97
2023-02-13T19:10:24.466Z,36.20
2023-02-13T19:15:26.077Z,34.30
2023-02-13T19:20:27.931Z,35.20
2023-02-13T19:25:29.554Z,36.43
2023-02-13T19:30:31.796Z,33.40
2023-02-13T19:35:33.464Z,31.83
2023-02-13T19:40:35.340Z,32.20
2023-02-13T19:45:36.998Z,34.20
2023-02-13T19:50:39.251Z,57.07
2023-02-13T19:55:40.939Z,66.73
2023-02-13T20:00:42.570Z,39.60
2023-02-13T20:05:44.347Z,43.37
2023-02-13T20:10:46.343Z,32.00
2023-02-13T20:15:48.157Z,34.23
2023-02-13T20:20:50.045Z,31.60
2023-02-13T20:25:51.668Z,31.77
2023-02-13T20:30:53.610Z,30.47
2023-02-13T20:35:55.836Z,31.93
2023-02-13T20:40:57.828Z,30.50
2023-02-13T20:45:59.692Z,32.00
2023-02-13T20:51:02.946Z,34.00
2023-02-13T20:56:06.776Z,35.67
2023-02-13T21:01:18.156Z,35.90
2023-02-13T21:06:34.998Z,35.67
2023-02-13T21:11:38.319Z,36.50
